Hobbieville, Indiana
Current Conditions -  °F | °C
As of 4:53 PM on Tuesday 21 Oct 2014 (Local Time) from KBMG Reporting Station
Broken Clouds Broken Clouds  
Wind Chill: 57°   Ceiling: 5500
Heat Index: 57°   Visibility: 10mi
Dew Point: 40°   Wind: 10mph
Humidity: 53%   Direction: 350°N
Pressure: 30.11"   Gusts: 17mph
Location:  38.9483°N, 86.6278°W
Report Text: KBMG 212053Z 35009G15KT 10SM SCT047 BKN055 14/04 A3011 RMK AO2 SLP195 T01390044 53002 $
Loading
Personal Weather Stations






























Interactive Weather Map
Tropical Storm Tracking
New forecast layout! Learn more

10-Day Weather Forecast

Advertisements
Track Severe Weather on mobile